Time;durP1;ratioP1;P1;durP2;ratioP2;P2;SDS_P1;SDS_P2;PMS_P1;PMS_P2;Temp;Humidity;BMP_temperature;BMP_pressure;BME280_temperature;BME280_humidity;BME280_pressure;Samples;Min_cycle;Max_cycle;Signal;HPM_P1;HPM_P2
2023/06/22 00:00:57;;;;;;;6.10;3.80;;;22.80;69.80;;;;;;5136473;28;20023;-77
2023/06/22 00:03:25;;;;;;;6.53;4.20;;;22.80;70.10;;;;;;5136310;28;20096;-76
2023/06/22 00:05:51;;;;;;;5.43;4.07;;;22.80;70.70;;;;;;5136357;28;20023;-76
2023/06/22 00:08:18;;;;;;;6.63;3.63;;;22.80;70.90;;;;;;5118195;28;20019;-76
2023/06/22 00:10:44;;;;;;;6.07;4.10;;;22.80;70.80;;;;;;5118581;28;20024;-76
2023/06/22 00:13:10;;;;;;;6.40;4.28;;;22.80;71.20;;;;;;5101644;28;20030;-76
2023/06/22 00:15:39;;;;;;;9.30;5.18;;;22.80;71.30;;;;;;5118115;28;20027;-76
2023/06/22 00:18:08;;;;;;;9.95;5.85;;;22.80;71.50;;;;;;5118061;28;20019;-76
2023/06/22 00:20:36;;;;;;;8.48;5.47;;;22.80;71.70;;;;;;5117961;28;20051;-76
2023/06/22 00:23:08;;;;;;;8.48;6.22;;;22.90;71.70;;;;;;5135946;28;20012;-76
2023/06/22 00:25:35;;;;;;;7.82;5.05;;;22.90;71.90;;;;;;5136102;28;20023;-76
2023/06/22 00:28:01;;;;;;;7.47;5.32;;;22.80;71.70;;;;;;5117913;28;20020;-76
2023/06/22 00:30:26;;;;;;;7.55;5.05;;;22.80;71.60;;;;;;5100949;28;20028;-76
2023/06/22 00:32:52;;;;;;;8.93;5.88;;;22.70;71.40;;;;;;5118054;28;20032;-76
2023/06/22 00:35:17;;;;;;;7.47;5.45;;;22.70;71.90;;;;;;5117673;28;20027;-76
2023/06/22 00:37:43;;;;;;;9.30;6.00;;;22.60;72.20;;;;;;5100867;28;20040;-76
2023/06/22 00:40:14;;;;;;;8.82;5.82;;;22.50;72.80;;;;;;5117564;28;20040;-76
2023/06/22 00:42:40;;;;;;;7.70;5.88;;;22.50;72.50;;;;;;5117449;28;20099;-76
2023/06/22 00:45:06;;;;;;;8.65;5.78;;;22.40;72.30;;;;;;5117580;28;20031;-76
2023/06/22 00:47:34;;;;;;;8.48;5.68;;;22.50;72.30;;;;;;5100564;28;20095;-76
2023/06/22 00:50:00;;;;;;;8.13;5.60;;;22.50;72.10;;;;;;5135606;28;20018;-77
2023/06/22 00:52:29;;;;;;;8.20;6.18;;;22.40;72.20;;;;;;5135288;28;20063;-76
2023/06/22 00:54:56;;;;;;;8.23;6.18;;;22.40;72.80;;;;;;5135429;28;20028;-76
2023/06/22 00:57:25;;;;;;;9.38;5.70;;;22.30;72.80;;;;;;5117288;28;20032;-76
2023/06/22 00:59:51;;;;;;;8.20;5.60;;;22.40;73.30;;;;;;5117263;28;20020;-76
2023/06/22 01:02:17;;;;;;;8.80;5.93;;;22.40;73.10;;;;;;5117141;28;20064;-76
2023/06/22 01:04:42;;;;;;;7.88;5.68;;;22.40;73.00;;;;;;5117238;28;20054;-76
2023/06/22 01:07:31;;;;;;;9.05;6.25;;;22.40;73.00;;;;;;5117388;28;20020;-77
2023/06/22 01:10:06;;;;;;;10.27;6.05;;;22.20;73.20;;;;;;5135171;28;20036;-77
2023/06/22 01:12:43;;;;;;;8.60;5.15;;;22.20;73.50;;;;;;5135064;28;20016;-76
2023/06/22 01:15:19;;;;;;;8.50;5.55;;;22.10;73.50;;;;;;5135153;28;20027;-76
2023/06/22 01:17:48;;;;;;;8.80;5.88;;;22.10;73.40;;;;;;5116950;28;20118;-76
2023/06/22 01:20:16;;;;;;;8.68;5.90;;;22.20;73.30;;;;;;5134885;28;20020;-76
2023/06/22 01:23:15;;;;;;;8.57;5.95;;;22.10;73.50;;;;;;5116670;28;20030;-76
2023/06/22 01:26:19;;;;;;;8.75;6.43;;;22.10;73.40;;;;;;5134618;28;20020;-76
2023/06/22 01:28:48;;;;;;;9.77;6.43;;;22.10;73.80;;;;;;5134713;28;20019;-76
2023/06/22 01:31:22;;;;;;;8.40;5.80;;;22.00;74.40;;;;;;5134569;28;20019;-76
2023/06/22 01:33:55;;;;;;;10.00;6.70;;;21.90;74.40;;;;;;5116560;28;20081;-76
2023/06/22 01:36:23;;;;;;;9.48;5.80;;;21.90;74.20;;;;;;5134728;28;20020;-77
2023/06/22 01:38:50;;;;;;;9.25;6.45;;;22.00;74.10;;;;;;5116572;28;20039;-77
2023/06/22 01:41:17;;;;;;;9.43;6.32;;;22.00;74.20;;;;;;5116670;28;20023;-76
2023/06/22 01:43:44;;;;;;;7.93;6.20;;;22.00;74.30;;;;;;5099549;28;20028;-76
2023/06/22 01:46:11;;;;;;;12.73;7.55;;;21.90;74.30;;;;;;5134350;28;20081;-76
2023/06/22 01:48:38;;;;;;;10.85;6.97;;;21.90;74.30;;;;;;5099335;28;20023;-77
2023/06/22 01:51:04;;;;;;;10.88;7.43;;;21.90;74.20;;;;;;5134201;28;20047;-76
2023/06/22 01:53:29;;;;;;;10.75;7.10;;;22.00;74.20;;;;;;5116027;28;20390;-76
2023/06/22 01:55:57;;;;;;;12.60;7.55;;;21.90;74.50;;;;;;5099323;28;20051;-76
2023/06/22 01:58:27;;;;;;;9.63;6.95;;;21.90;74.70;;;;;;5099459;28;20024;-76
2023/06/22 02:01:13;;;;;;;10.00;6.82;;;21.90;74.80;;;;;;5116179;28;20030;-77
2023/06/22 02:03:49;;;;;;;10.77;7.20;;;21.90;74.80;;;;;;5134064;28;20024;-76
2023/06/22 02:06:21;;;;;;;10.68;7.65;;;21.90;75.00;;;;;;5134363;28;20024;-76
2023/06/22 02:08:55;;;;;;;12.30;7.18;;;21.90;75.00;;;;;;5134168;28;20023;-76
2023/06/22 02:11:21;;;;;;;11.43;7.95;;;21.80;75.00;;;;;;5116009;28;20051;-77
2023/06/22 02:13:48;;;;;;;11.70;7.95;;;21.70;75.10;;;;;;5116154;28;20062;-76
2023/06/22 02:16:15;;;;;;;11.70;7.20;;;21.60;75.20;;;;;;5115995;28;20023;-76
2023/06/22 02:18:50;;;;;;;11.07;7.40;;;21.60;75.50;;;;;;5133987;28;20053;-76
2023/06/22 02:21:17;;;;;;;10.95;7.40;;;21.60;75.80;;;;;;5134205;28;20125;-76
2023/06/22 02:23:42;;;;;;;11.63;7.75;;;21.50;75.80;;;;;;5116121;28;20091;-76
2023/06/22 02:26:08;;;;;;;11.60;7.43;;;21.60;76.00;;;;;;5115913;28;20028;-76
2023/06/22 02:28:34;;;;;;;10.15;7.40;;;21.60;76.10;;;;;;5099110;28;20040;-76
2023/06/22 02:30:59;;;;;;;12.38;8.23;;;21.60;76.00;;;;;;5098922;28;20063;-76
2023/06/22 02:33:25;;;;;;;12.98;8.50;;;21.70;76.10;;;;;;5115921;28;20031;-77
2023/06/22 02:35:51;;;;;;;12.00;7.80;;;21.60;75.80;;;;;;5082278;28;20038;-76
2023/06/22 02:38:17;;;;;;;10.95;7.95;;;21.50;76.00;;;;;;5115905;28;20061;-77
2023/06/22 02:40:43;;;;;;;11.57;7.93;;;21.40;76.00;;;;;;5115950;28;20020;-76
2023/06/22 02:43:08;;;;;;;10.75;7.72;;;21.40;76.10;;;;;;5115773;28;20038;-77
2023/06/22 02:45:34;;;;;;;11.52;7.93;;;21.50;76.00;;;;;;5133858;28;20024;-77
2023/06/22 02:47:59;;;;;;;11.85;8.38;;;21.50;76.00;;;;;;5115828;28;20043;-76
2023/06/22 02:50:25;;;;;;;9.20;6.90;;;21.60;75.80;;;;;;5115541;28;20035;-77
2023/06/22 02:52:51;;;;;;;11.98;7.63;;;21.60;75.50;;;;;;5115684;28;20067;-76
2023/06/22 02:55:16;;;;;;;12.48;8.35;;;21.60;75.50;;;;;;5133678;28;20028;-76
2023/06/22 02:57:44;;;;;;;12.02;8.45;;;21.60;75.50;;;;;;5115700;28;20092;-77
2023/06/22 03:00:19;;;;;;;13.75;9.02;;;21.60;75.50;;;;;;5133633;28;20032;-77
2023/06/22 03:02:49;;;;;;;12.43;8.90;;;21.60;75.50;;;;;;5100044;28;20032;-77
2023/06/22 03:05:18;;;;;;;14.77;9.68;;;21.50;75.70;;;;;;5117929;28;20012;-76
2023/06/22 03:07:44;;;;;;;13.77;10.32;;;21.50;76.00;;;;;;5119505;28;20027;-76
2023/06/22 03:10:12;;;;;;;19.17;11.45;;;21.50;77.00;;;;;;5137451;28;20024;-76
2023/06/22 03:12:38;;;;;;;17.38;10.23;;;21.50;76.40;;;;;;5137375;28;20030;-76
2023/06/22 03:15:09;;;;;;;15.70;10.38;;;21.50;76.10;;;;;;5102403;28;20023;-77
2023/06/22 03:17:35;;;;;;;14.30;10.35;;;21.50;75.90;;;;;;5119435;28;20031;-76
2023/06/22 03:20:08;;;;;;;15.05;10.40;;;21.40;76.10;;;;;;5119419;28;20027;-76
2023/06/22 03:22:35;;;;;;;19.35;12.65;;;21.40;76.40;;;;;;5120107;28;20057;-76
2023/06/22 03:25:01;;;;;;;20.35;13.52;;;21.30;76.60;;;;;;5119259;28;20034;-77
2023/06/22 03:27:27;;;;;;;18.17;11.93;;;21.30;77.00;;;;;;5119260;28;20024;-76
2023/06/22 03:29:52;;;;;;;17.30;11.38;;;21.20;77.30;;;;;;5119209;28;20031;-76
2023/06/22 03:32:18;;;;;;;14.57;10.95;;;21.20;78.30;;;;;;5136996;28;20119;-77
2023/06/22 03:34:46;;;;;;;17.08;11.32;;;21.20;77.10;;;;;;5119028;28;20042;-76
2023/06/22 03:37:15;;;;;;;16.02;10.75;;;21.10;77.00;;;;;;5118850;28;20028;-76
2023/06/22 03:39:41;;;;;;;14.52;10.35;;;21.10;76.90;;;;;;5102442;28;20432;-76
2023/06/22 03:42:08;;;;;;;18.42;11.20;;;21.10;76.90;;;;;;5136752;28;20059;-76
2023/06/22 03:44:36;;;;;;;15.98;10.70;;;21.00;77.10;;;;;;5136782;28;20046;-77
2023/06/22 03:47:02;;;;;;;16.45;10.18;;;20.90;77.30;;;;;;5118659;28;20032;-77
2023/06/22 03:49:27;;;;;;;14.07;10.25;;;20.90;77.30;;;;;;5118849;28;20083;-76
2023/06/22 03:51:53;;;;;;;17.77;11.00;;;20.90;77.40;;;;;;5101599;28;20055;-76
2023/06/22 03:54:19;;;;;;;16.08;10.40;;;20.90;77.50;;;;;;5101800;28;20032;-76
2023/06/22 03:56:44;;;;;;;17.80;10.85;;;20.90;77.90;;;;;;5118486;28;20028;-76
2023/06/22 03:59:10;;;;;;;18.83;11.13;;;20.90;78.10;;;;;;5118436;28;20054;-76
2023/06/22 04:01:36;;;;;;;15.32;10.68;;;20.90;78.20;;;;;;5101513;28;20036;-76
2023/06/22 04:04:02;;;;;;;17.40;10.48;;;20.90;78.10;;;;;;5101485;28;20023;-77
2023/06/22 04:06:27;;;;;;;16.25;10.95;;;20.90;78.00;;;;;;5118461;28;20031;-73
2023/06/22 04:08:53;;;;;;;13.90;10.25;;;20.80;78.20;;;;;;5136244;28;20048;-73
2023/06/22 04:11:19;;;;;;;20.13;10.90;;;20.80;78.30;;;;;;5136288;28;20028;-73
2023/06/22 04:13:44;;;;;;;16.65;10.30;;;20.90;78.60;;;;;;5136263;28;20053;-73
2023/06/22 04:16:10;;;;;;;17.25;10.98;;;20.90;78.70;;;;;;5135700;28;20039;-73
2023/06/22 04:18:36;;;;;;;17.52;11.80;;;21.00;79.00;;;;;;5118023;28;20466;-73
2023/06/22 04:21:02;;;;;;;17.00;10.95;;;21.00;78.80;;;;;;5136113;28;20043;-73
2023/06/22 04:23:28;;;;;;;18.13;10.77;;;21.10;79.00;;;;;;5135975;28;20027;-73
2023/06/22 04:25:56;;;;;;;17.98;11.88;;;21.10;79.20;;;;;;5135972;28;20121;-73
2023/06/22 04:28:22;;;;;;;18.63;11.63;;;21.00;79.10;;;;;;5135927;28;20027;-73
2023/06/22 04:30:47;;;;;;;20.13;12.57;;;21.10;79.20;;;;;;5117851;28;20047;-73
2023/06/22 04:33:16;;;;;;;21.17;13.43;;;21.20;79.20;;;;;;5135776;28;20031;-73
2023/06/22 04:35:45;;;;;;;25.40;14.77;;;21.20;79.20;;;;;;5135799;28;20023;-73
2023/06/22 04:38:13;;;;;;;22.13;13.48;;;21.20;79.20;;;;;;5135758;28;20031;-73
2023/06/22 04:40:39;;;;;;;22.65;14.25;;;21.10;79.20;;;;;;5135687;28;20050;-73
2023/06/22 04:43:06;;;;;;;29.17;15.80;;;21.10;79.30;;;;;;5135541;28;20036;-73
2023/06/22 04:45:32;;;;;;;25.13;14.10;;;21.10;79.40;;;;;;5135615;28;20020;-73
2023/06/22 04:47:58;;;;;;;22.77;14.30;;;21.20;79.40;;;;;;5135444;28;20550;-73
2023/06/22 04:50:24;;;;;;;22.52;13.73;;;21.20;79.30;;;;;;5135241;28;20031;-74
2023/06/22 04:52:51;;;;;;;22.85;13.93;;;21.30;79.30;;;;;;5135457;28;20091;-74
2023/06/22 04:55:18;;;;;;;21.35;14.02;;;21.30;79.50;;;;;;5135258;28;20020;-73
2023/06/22 04:57:50;;;;;;;22.38;13.98;;;21.30;79.50;;;;;;5135397;28;20085;-73
2023/06/22 05:00:22;;;;;;;23.45;13.95;;;21.40;79.60;;;;;;5135397;28;20024;-73
2023/06/22 05:02:49;;;;;;;22.27;13.90;;;21.40;79.60;;;;;;5135370;28;20038;-73
2023/06/22 05:05:15;;;;;;;20.67;13.98;;;21.50;79.80;;;;;;5135211;28;20050;-73
2023/06/22 05:07:44;;;;;;;24.17;14.30;;;21.50;79.80;;;;;;5135140;28;20042;-73
2023/06/22 05:10:12;;;;;;;25.73;14.30;;;21.50;79.90;;;;;;5135098;28;20049;-73
2023/06/22 05:12:39;;;;;;;24.88;13.82;;;21.50;80.00;;;;;;5135087;28;20068;-73
2023/06/22 05:15:06;;;;;;;23.48;13.93;;;21.60;80.20;;;;;;5135016;28;20083;-73
2023/06/22 05:17:32;;;;;;;22.83;14.02;;;21.60;80.30;;;;;;5135045;28;20072;-73
2023/06/22 05:19:58;;;;;;;22.30;14.38;;;21.60;80.50;;;;;;5134941;28;20027;-73
2023/06/22 05:22:24;;;;;;;20.55;13.80;;;21.70;80.70;;;;;;5134824;28;20024;-73
2023/06/22 05:24:49;;;;;;;20.38;13.95;;;21.70;80.90;;;;;;5134878;28;20489;-73
2023/06/22 05:27:15;;;;;;;20.55;13.30;;;21.70;81.00;;;;;;5134024;28;20016;-73
2023/06/22 05:29:42;;;;;;;23.33;14.15;;;21.80;81.20;;;;;;5134745;28;20059;-73
2023/06/22 05:32:08;;;;;;;21.17;13.57;;;21.80;81.20;;;;;;5134627;28;20034;-73
2023/06/22 05:34:34;;;;;;;17.90;12.88;;;21.80;81.10;;;;;;5099519;28;20024;-73
2023/06/22 05:36:59;;;;;;;20.25;14.25;;;21.80;81.10;;;;;;5134607;28;20044;-73
2023/06/22 05:39:25;;;;;;;17.67;12.32;;;21.90;81.30;;;;;;5134553;28;20444;-73
2023/06/22 05:41:51;;;;;;;19.38;13.48;;;21.90;81.20;;;;;;5134462;28;20031;-73
2023/06/22 05:44:17;;;;;;;18.42;13.30;;;22.00;81.20;;;;;;5134460;28;20024;-73
2023/06/22 05:46:45;;;;;;;18.98;13.32;;;22.00;81.40;;;;;;5134471;28;20024;-73
2023/06/22 05:49:14;;;;;;;23.10;14.75;;;22.00;81.30;;;;;;5134434;28;20111;-73
2023/06/22 05:51:41;;;;;;;22.20;13.85;;;22.10;81.40;;;;;;5134188;28;20039;-73
2023/06/22 05:54:07;;;;;;;19.85;14.63;;;22.10;81.20;;;;;;5134359;28;20028;-73
2023/06/22 05:56:33;;;;;;;22.38;14.20;;;22.20;81.20;;;;;;5116531;28;20036;-73
2023/06/22 05:58:59;;;;;;;18.75;13.27;;;22.20;81.20;;;;;;5134250;28;20028;-73
2023/06/22 06:01:25;;;;;;;22.83;13.20;;;22.20;81.00;;;;;;5134177;28;20084;-74
2023/06/22 06:03:52;;;;;;;19.40;13.80;;;22.30;81.00;;;;;;5134253;28;20020;-73
2023/06/22 06:06:28;;;;;;;22.08;14.50;;;22.30;81.10;;;;;;5116129;28;20100;-73
2023/06/22 06:08:54;;;;;;;19.17;13.93;;;22.30;81.10;;;;;;5134094;28;20012;-73
2023/06/22 06:11:21;;;;;;;23.10;13.75;;;22.40;81.20;;;;;;5134092;28;20012;-73
2023/06/22 06:13:47;;;;;;;22.70;14.48;;;22.40;80.90;;;;;;5134053;28;20028;-74
2023/06/22 06:16:12;;;;;;;22.05;15.20;;;22.40;80.70;;;;;;5116112;28;20078;-74
2023/06/22 06:18:38;;;;;;;19.40;13.60;;;22.50;80.50;;;;;;5134021;28;20052;-73
2023/06/22 06:21:04;;;;;;;22.52;14.63;;;22.50;80.60;;;;;;5133992;28;20075;-74
2023/06/22 06:23:29;;;;;;;19.33;13.50;;;22.50;80.50;;;;;;5133868;28;20447;-74
2023/06/22 06:25:55;;;;;;;20.50;14.20;;;22.50;80.30;;;;;;5133931;28;20087;-73
2023/06/22 06:28:21;;;;;;;23.17;15.35;;;22.60;80.30;;;;;;5116100;28;20028;-73
2023/06/22 06:30:47;;;;;;;21.30;14.63;;;22.60;80.20;;;;;;5133890;28;20031;-74
2023/06/22 06:33:13;;;;;;;19.58;14.13;;;22.60;80.20;;;;;;5133916;28;20057;-73
2023/06/22 06:35:38;;;;;;;20.88;14.48;;;22.60;80.40;;;;;;5115876;28;20064;-74
2023/06/22 06:38:04;;;;;;;20.35;14.57;;;22.60;80.50;;;;;;5134281;28;20023;-73
2023/06/22 06:40:30;;;;;;;20.83;14.98;;;22.60;80.40;;;;;;5120143;28;20056;-74
2023/06/22 06:42:55;;;;;;;22.65;14.30;;;22.60;80.40;;;;;;5137936;28;20032;-73
2023/06/22 06:45:23;;;;;;;22.23;15.07;;;22.60;80.70;;;;;;5137973;28;20028;-73
2023/06/22 06:47:50;;;;;;;21.73;14.68;;;22.60;80.50;;;;;;5137795;28;20107;-73
2023/06/22 06:50:18;;;;;;;20.77;14.43;;;22.60;80.40;;;;;;5137690;28;20016;-74
2023/06/22 06:52:44;;;;;;;21.77;14.88;;;22.60;80.40;;;;;;5137752;28;20036;-73
2023/06/22 06:55:11;;;;;;;20.25;14.18;;;22.60;80.50;;;;;;5137729;28;20035;-73
2023/06/22 06:57:41;;;;;;;20.38;14.30;;;22.70;80.30;;;;;;5102892;28;20091;-73
2023/06/22 07:00:13;;;;;;;19.50;14.13;;;22.70;80.10;;;;;;5137692;28;20027;-74
2023/06/22 07:02:43;;;;;;;21.33;14.93;;;22.70;80.20;;;;;;5137617;28;20057;-73
2023/06/22 07:05:10;;;;;;;20.33;15.55;;;22.70;80.20;;;;;;5137645;28;20020;-73
2023/06/22 07:07:36;;;;;;;22.67;15.27;;;22.70;80.00;;;;;;5137527;28;20489;-73
2023/06/22 07:10:03;;;;;;;24.52;15.57;;;22.70;80.10;;;;;;5137511;28;20020;-73
2023/06/22 07:12:28;;;;;;;21.00;14.52;;;22.60;80.10;;;;;;5119545;28;20102;-73
2023/06/22 07:15:00;;;;;;;23.75;14.20;;;22.70;80.20;;;;;;5137520;28;20102;-73
2023/06/22 07:17:26;;;;;;;40.17;15.43;;;22.70;80.10;;;;;;5120344;28;20030;-74
2023/06/22 07:19:51;;;;;;;23.35;14.63;;;22.70;80.10;;;;;;5119276;28;20099;-73
2023/06/22 07:22:17;;;;;;;21.75;13.82;;;22.70;80.00;;;;;;5137193;28;20039;-73
2023/06/22 07:24:42;;;;;;;23.02;14.95;;;22.70;79.80;;;;;;5137180;28;20028;-73
2023/06/22 07:27:11;;;;;;;23.67;15.15;;;22.70;79.90;;;;;;5137302;28;20031;-73
2023/06/22 07:29:36;;;;;;;22.27;14.68;;;22.70;79.80;;;;;;5119592;28;20020;-73
2023/06/22 07:32:04;;;;;;;22.27;14.68;;;22.70;80.10;;;;;;5119024;28;20046;-73
2023/06/22 07:34:30;;;;;;;21.90;15.40;;;22.80;80.20;;;;;;5118856;28;20026;-74
2023/06/22 07:36:56;;;;;;;20.70;14.18;;;22.80;80.40;;;;;;5118843;28;20457;-74
2023/06/22 07:39:26;;;;;;;20.23;14.35;;;22.80;80.30;;;;;;5136938;28;20051;-74
2023/06/22 07:41:52;;;;;;;19.65;13.90;;;22.80;80.40;;;;;;5136976;28;20080;-74
2023/06/22 07:44:18;;;;;;;20.33;14.38;;;22.80;80.50;;;;;;5136806;28;20044;-74
2023/06/22 07:46:43;;;;;;;27.90;15.23;;;22.90;80.50;;;;;;5136788;28;20024;-74
2023/06/22 07:49:09;;;;;;;23.60;14.63;;;22.90;80.40;;;;;;5101777;28;20028;-74
2023/06/22 07:51:35;;;;;;;23.55;15.23;;;22.90;80.10;;;;;;5135670;28;20063;-74
2023/06/22 07:54:00;;;;;;;23.42;14.52;;;22.90;80.10;;;;;;5136645;28;20402;-74
2023/06/22 07:56:26;;;;;;;18.90;13.70;;;23.00;80.00;;;;;;5136584;28;20028;-74
2023/06/22 07:58:53;;;;;;;20.58;14.43;;;23.00;80.10;;;;;;5136552;28;20027;-74
2023/06/22 08:01:20;;;;;;;21.25;13.55;;;23.10;80.20;;;;;;5136487;28;20028;-74
2023/06/22 08:03:48;;;;;;;21.23;13.80;;;23.10;80.10;;;;;;5136402;28;20031;-74
2023/06/22 08:06:14;;;;;;;19.98;13.70;;;23.20;80.20;;;;;;5118400;28;20486;-74
2023/06/22 08:08:39;;;;;;;17.73;13.38;;;23.30;80.00;;;;;;5118458;28;20028;-74
2023/06/22 08:11:06;;;;;;;18.98;13.65;;;23.30;79.80;;;;;;5136328;28;20028;-74
2023/06/22 08:13:31;;;;;;;19.65;13.77;;;23.40;79.80;;;;;;5136246;28;20039;-74
2023/06/22 08:15:57;;;;;;;21.30;15.52;;;23.40;79.50;;;;;;5118206;28;20031;-74
2023/06/22 08:18:23;;;;;;;18.33;13.93;;;23.50;79.20;;;;;;5136137;28;20032;-74
2023/06/22 08:20:49;;;;;;;21.02;14.52;;;23.50;78.70;;;;;;5101231;28;20091;-74
2023/06/22 08:23:15;;;;;;;20.95;14.82;;;23.60;78.70;;;;;;5135981;28;20019;-74
2023/06/22 08:25:40;;;;;;;21.13;14.43;;;23.60;78.70;;;;;;5136055;28;20058;-74
2023/06/22 08:28:06;;;;;;;19.48;13.65;;;23.60;78.50;;;;;;5136113;28;20030;-74
2023/06/22 08:30:32;;;;;;;23.55;15.70;;;23.60;78.40;;;;;;5135937;28;20026;-73
2023/06/22 08:32:58;;;;;;;22.10;14.13;;;23.70;78.60;;;;;;5135912;28;20031;-74
2023/06/22 08:35:24;;;;;;;22.10;14.98;;;23.60;78.60;;;;;;5117672;28;20024;-74
2023/06/22 08:37:52;;;;;;;18.80;13.60;;;23.60;78.50;;;;;;5135779;28;20019;-74
2023/06/22 08:40:19;;;;;;;19.67;13.68;;;23.60;78.60;;;;;;5118105;28;20034;-74
2023/06/22 08:42:45;;;;;;;17.55;13.23;;;23.70;78.40;;;;;;5117491;28;20024;-74
2023/06/22 08:45:11;;;;;;;18.40;13.90;;;23.70;78.20;;;;;;5135651;28;20436;-74
2023/06/22 08:47:37;;;;;;;15.57;13.13;;;23.80;78.30;;;;;;5135597;28;20028;-74
2023/06/22 08:50:03;;;;;;;19.13;14.35;;;23.80;78.40;;;;;;5135545;28;20470;-74
2023/06/22 08:52:29;;;;;;;18.90;14.13;;;23.80;77.60;;;;;;5117339;28;20081;-74
2023/06/22 08:54:55;;;;;;;18.50;14.48;;;23.80;77.90;;;;;;5135437;28;20028;-74
2023/06/22 08:57:21;;;;;;;18.48;14.20;;;23.90;78.00;;;;;;5117319;28;20032;-74
2023/06/22 08:59:47;;;;;;;17.95;13.18;;;23.90;77.70;;;;;;5135300;28;20046;-74
2023/06/22 09:02:13;;;;;;;21.90;14.75;;;23.90;77.80;;;;;;5135231;28;20048;-74
2023/06/22 09:04:38;;;;;;;18.98;14.73;;;24.00;77.70;;;;;;5135269;28;20027;-74
2023/06/22 09:07:04;;;;;;;20.33;14.65;;;24.10;77.70;;;;;;5135200;28;20028;-74
2023/06/22 09:09:30;;;;;;;19.10;14.80;;;24.10;77.40;;;;;;5135183;28;20023;-75
2023/06/22 09:11:56;;;;;;;22.15;15.20;;;24.20;77.50;;;;;;5135114;28;20019;-75
2023/06/22 09:14:22;;;;;;;19.50;14.15;;;24.20;77.50;;;;;;5135092;28;20482;-76
2023/06/22 09:16:47;;;;;;;21.55;14.88;;;24.20;77.10;;;;;;5134994;28;20016;-75
2023/06/22 09:19:13;;;;;;;20.40;14.57;;;24.20;77.10;;;;;;5117103;28;20053;-75
2023/06/22 09:21:39;;;;;;;22.92;15.25;;;24.20;77.00;;;;;;5134940;28;20036;-75
2023/06/22 09:24:05;;;;;;;21.48;14.70;;;24.20;77.20;;;;;;5134792;28;20028;-75
2023/06/22 09:26:30;;;;;;;19.05;14.57;;;24.10;76.70;;;;;;5134832;28;20031;-75
2023/06/22 09:28:56;;;;;;;21.58;13.82;;;24.10;76.60;;;;;;5134819;28;20028;-75
2023/06/22 09:31:25;;;;;;;19.60;14.10;;;24.10;76.50;;;;;;5134880;28;20024;-75
2023/06/22 09:33:52;;;;;;;19.52;13.73;;;24.10;76.30;;;;;;5134636;28;20028;-76
2023/06/22 09:36:18;;;;;;;17.85;13.07;;;24.10;76.60;;;;;;5134596;28;20043;-73
2023/06/22 09:38:44;;;;;;;19.95;14.65;;;24.10;76.40;;;;;;5134614;28;20087;-73
2023/06/22 09:41:09;;;;;;;19.52;13.43;;;24.10;76.10;;;;;;5134590;28;20019;-73
2023/06/22 09:43:36;;;;;;;18.13;13.05;;;24.10;76.20;;;;;;5116445;28;20386;-73
2023/06/22 09:46:02;;;;;;;17.77;13.05;;;24.00;76.00;;;;;;5134457;28;20042;-73
2023/06/22 09:48:29;;;;;;;16.58;12.93;;;24.00;75.90;;;;;;5134471;28;20037;-73
2023/06/22 09:50:55;;;;;;;18.48;13.23;;;24.10;75.90;;;;;;5134256;28;20051;-73
2023/06/22 09:53:20;;;;;;;16.15;12.55;;;24.10;75.80;;;;;;5134354;28;20024;-73
2023/06/22 09:55:46;;;;;;;17.67;12.68;;;24.00;75.40;;;;;;5134317;28;20425;-73
2023/06/22 09:58:12;;;;;;;15.57;12.07;;;24.10;75.50;;;;;;5116483;28;20030;-75
2023/06/22 10:00:37;;;;;;;16.40;12.57;;;24.10;75.60;;;;;;5134368;28;20463;-73
2023/06/22 10:03:03;;;;;;;17.13;12.95;;;24.00;75.90;;;;;;5134148;28;20031;-73
2023/06/22 10:05:29;;;;;;;19.67;13.65;;;24.00;76.20;;;;;;5116225;28;20039;-73
2023/06/22 10:07:54;;;;;;;17.75;13.30;;;24.00;76.70;;;;;;5134134;28;20031;-74
2023/06/22 10:10:20;;;;;;;19.40;13.90;;;24.00;77.20;;;;;;5134300;28;20024;-73
2023/06/22 10:12:48;;;;;;;18.42;14.07;;;24.00;77.40;;;;;;5115832;28;20036;-73
2023/06/22 10:15:14;;;;;;;19.42;14.25;;;24.00;77.60;;;;;;5134057;28;20034;-73
2023/06/22 10:17:40;;;;;;;18.40;13.50;;;24.00;77.60;;;;;;5134062;28;20028;-74
2023/06/22 10:20:11;;;;;;;20.08;14.30;;;24.00;77.70;;;;;;5134018;28;20027;-73
2023/06/22 10:22:41;;;;;;;18.77;14.07;;;24.10;78.20;;;;;;5134000;28;20020;-73
2023/06/22 10:25:07;;;;;;;18.77;13.45;;;24.10;77.80;;;;;;5134045;28;20026;-73
2023/06/22 10:27:34;;;;;;;19.70;14.05;;;24.10;77.50;;;;;;5133920;28;20057;-73
2023/06/22 10:30:00;;;;;;;19.88;13.30;;;24.10;77.70;;;;;;5133924;28;20020;-73
2023/06/22 10:32:27;;;;;;;19.02;13.68;;;24.10;77.80;;;;;;5133933;28;20087;-73
2023/06/22 10:34:53;;;;;;;17.35;13.38;;;24.10;77.80;;;;;;5133794;28;20020;-73
2023/06/22 10:37:19;;;;;;;19.00;13.88;;;24.00;77.50;;;;;;5133825;28;20031;-73
2023/06/22 10:39:44;;;;;;;19.27;14.23;;;24.00;77.00;;;;;;5133814;28;20038;-74
2023/06/22 10:42:10;;;;;;;17.67;13.38;;;24.00;76.70;;;;;;5133728;28;20031;-73
2023/06/22 10:44:35;;;;;;;16.48;13.07;;;24.00;76.50;;;;;;5133779;28;20092;-73
2023/06/22 10:47:01;;;;;;;17.55;12.65;;;23.90;76.40;;;;;;5115801;28;20024;-73
2023/06/22 10:49:27;;;;;;;17.90;12.45;;;24.00;76.30;;;;;;5133723;28;20028;-73
2023/06/22 10:51:52;;;;;;;15.43;11.77;;;24.00;76.30;;;;;;5133396;28;20047;-73
2023/06/22 10:54:19;;;;;;;18.35;12.18;;;24.00;76.20;;;;;;5133654;28;20112;-73
2023/06/22 10:56:44;;;;;;;17.52;12.45;;;24.00;76.10;;;;;;5133786;28;20015;-73
2023/06/22 10:59:10;;;;;;;16.42;12.45;;;24.10;76.00;;;;;;5133658;28;20028;-73
2023/06/22 11:01:36;;;;;;;14.95;11.90;;;24.10;75.90;;;;;;5115583;28;20054;-73
2023/06/22 11:04:02;;;;;;;17.60;12.73;;;24.10;75.70;;;;;;5133491;28;20030;-73
2023/06/22 11:06:28;;;;;;;15.93;13.00;;;24.10;75.90;;;;;;5133554;28;20024;-74
2023/06/22 11:08:53;;;;;;;16.33;12.32;;;24.10;75.60;;;;;;5133528;28;20027;-74
2023/06/22 11:11:19;;;;;;;16.63;12.70;;;24.00;75.60;;;;;;5115472;28;20081;-74
2023/06/22 11:13:45;;;;;;;16.65;12.27;;;24.00;75.70;;;;;;5133551;28;20030;-74
2023/06/22 11:16:10;;;;;;;21.52;13.85;;;24.00;75.90;;;;;;5133514;28;20035;-74
2023/06/22 11:18:36;;;;;;;17.30;13.60;;;23.90;77.00;;;;;;5133634;28;20031;-73
2023/06/22 11:21:02;;;;;;;20.63;14.57;;;23.90;78.20;;;;;;5115381;28;20052;-73
2023/06/22 11:23:28;;;;;;;17.13;14.27;;;23.70;79.70;;;;;;5133320;28;20031;-74
2023/06/22 11:25:54;;;;;;;19.33;14.43;;;23.60;80.70;;;;;;5117231;28;20028;-74
2023/06/22 11:28:20;;;;;;;19.45;16.00;;;23.60;81.50;;;;;;5137151;28;20039;-74
2023/06/22 11:30:47;;;;;;;21.85;16.92;;;23.40;82.30;;;;;;5119021;28;20035;-74
2023/06/22 11:33:12;;;;;;;21.35;16.98;;;23.40;83.40;;;;;;5137025;28;20036;-74
2023/06/22 11:35:38;;;;;;;22.30;17.42;;;23.30;84.10;;;;;;5119071;28;20038;-74
2023/06/22 11:38:04;;;;;;;21.58;15.63;;;23.30;84.40;;;;;;5136962;28;20038;-74
2023/06/22 11:40:30;;;;;;;20.83;15.98;;;23.20;84.10;;;;;;5136918;28;20024;-74
2023/06/22 11:42:56;;;;;;;21.20;16.42;;;23.10;84.20;;;;;;5136976;28;20058;-74
2023/06/22 11:45:22;;;;;;;26.67;18.00;;;23.20;84.70;;;;;;5136977;28;20035;-74
2023/06/22 11:47:47;;;;;;;22.98;17.55;;;23.10;85.00;;;;;;5101922;28;20032;-74
2023/06/22 11:50:13;;;;;;;26.08;17.08;;;23.10;86.30;;;;;;5136767;28;20031;-74
2023/06/22 11:52:39;;;;;;;24.00;17.35;;;23.10;86.60;;;;;;5136451;28;20116;-74
2023/06/22 11:55:06;;;;;;;20.95;16.90;;;23.10;87.30;;;;;;5118533;28;20059;-74
2023/06/22 11:57:37;;;;;;;26.08;16.98;;;23.00;87.70;;;;;;5136628;28;20031;-74
2023/06/22 12:00:16;;;;;;;22.90;17.05;;;22.90;88.20;;;;;;5118614;28;20027;-74
2023/06/22 12:02:42;;;;;;;25.13;17.05;;;22.80;87.40;;;;;;5118370;28;20031;-74
2023/06/22 12:05:08;;;;;;;23.50;17.27;;;22.70;88.00;;;;;;5118429;28;20043;-77
2023/06/22 12:07:33;;;;;;;24.92;17.30;;;22.70;88.80;;;;;;5118317;28;20024;-75
2023/06/22 12:10:01;;;;;;;25.27;17.75;;;22.80;89.10;;;;;;5101468;28;20027;-75
2023/06/22 12:12:26;;;;;;;23.58;17.48;;;22.80;89.10;;;;;;5136490;28;20019;-75
2023/06/22 12:14:52;;;;;;;24.73;17.48;;;22.90;89.20;;;;;;5118220;28;20023;-75
2023/06/22 12:17:18;;;;;;;22.10;17.05;;;22.90;89.10;;;;;;5118293;28;20035;-73
2023/06/22 12:19:43;;;;;;;24.13;17.20;;;22.90;89.20;;;;;;5136216;28;20031;-73
2023/06/22 12:22:09;;;;;;;24.48;16.95;;;22.80;89.10;;;;;;5136042;28;20032;-75
2023/06/22 12:24:34;;;;;;;23.58;17.15;;;22.80;89.10;;;;;;5118108;28;20024;-75
2023/06/22 12:27:00;;;;;;;21.67;16.67;;;22.70;88.60;;;;;;5136043;28;20024;-76
2023/06/22 12:29:25;;;;;;;22.60;16.33;;;22.70;88.70;;;;;;5135994;28;20027;-75